Home > Products > Valid Products > TAF

000
FTUS45 KMSO 272124 AAB
TAFSMN
TAF AMD
KSMN 272124Z 2721/2818 32011G18KT P6SM VCTS BKN050CB
     FM272200 33008KT P6SM -SHRA BKN060
     FM280100 VRB03KT P6SM BKN100
      AMD LTD TO CLD VIS AND WIND=



000
FTUS45 KMSO 271720
TAFGPI
TAF
KGPI 271720Z 2718/2818 16004KT P6SM -SHRA SCT050 OVC090
     FM272000 19012KT P6SM VCSH BKN050 OVC100
     FM280100 21005KT P6SM SCT100=



000
FTUS45 KMSO 271720
TAFMSO
TAF
KMSO 271720Z 2718/2818 32007KT P6SM BKN070
     FM272000 31012G22KT P6SM VCSH BKN060
     FM280200 29010KT P6SM BKN100
     FM280600 31005KT P6SM SCT150=



000
FTUS45 KMSO 271720
TAFBTM
TAF
KBTM 271720Z 2718/2818 17011KT P6SM VCSH BKN060 OVC090
     FM271900 32012G18KT 6SM -SHRA VCTS BKN050CB
     FM272100 32012KT P6SM -SHRA BKN060
     FM280200 33006KT P6SM VCSH BKN080
     FM280400 28005KT P6SM SCT100=



000
FTUS45 KMSO 271720
TAFSMN
TAF
KSMN 271720Z 2718/2818 32009KT P6SM VCSH BKN060 OVC090
     FM272000 32006KT P6SM -SHRA VCTS BKN060CB
     FM272200 33008KT P6SM -SHRA BKN060
     FM280100 VRB03KT P6SM BKN100
      AMD LTD TO CLD VIS AND WIND=



000
FTUS45 KMSO 271150 AAA
TAFGPI
TAF AMD
KGPI 271150Z 2712/2812 04003KT 5SM BR BKN001 OVC070
      TEMPO 2712/2713 1SM BR BKN001
     FM271500 19009KT P6SM VCSH BKN100
     FM280100 VRB03KT P6SM SCT100=



000
FTUS45 KMSO 270604 RRA
TAFMSO
TAF
KMSO 270604Z 2706/2806 25003KT P6SM VCSH BKN100
     FM270800 VRB03KT P6SM SCT100
     FM272000 29009KT P6SM VCSH BKN080
     FM280200 VRB03KT P6SM FEW100=



000
FTUS45 KMSO 270604 RRA
TAFSMN
TAF
KSMN 270604Z 2706/2806 32009KT P6SM BKN100
     FM271900 36006KT P6SM VCSH BKN060
     FM280100 VRB03KT P6SM SKC
      AMD LTD TO CLD VIS AND WIND=



000
FTUS45 KMSO 270604 RRA
TAFGPI
TAF
KGPI 270604Z 2706/2806 13007KT P6SM VCSH BKN060 BKN100
     FM270900 16005KT P6SM BKN100
     FM271700 19009KT P6SM VCSH BKN100
     FM280100 VRB03KT P6SM SCT100=



000
FTUS45 KMSO 270604 RRA
TAFBTM
TAF
KBTM 270604Z 2706/2806 17011KT P6SM SCT100
     FM271900 32009KT P6SM VCSH BKN070
     FM280200 VRB03KT P6SM SKC=



000
FTUS45 KMSO 270044 AAC
TAFMSO
TAF AMD
KMSO 270044Z 2701/2724 26017G28KT 6SM -RA BKN060 OVC090
     FM270120 36007KT P6SM VCSH BKN100
     FM270400 VRB03KT P6SM SCT100
     FM272000 29009KT P6SM VCSH BKN080=



000
FTUS45 KMSO 262054 AAB
TAFMSO
TAF AMD
KMSO 262054Z 2621/2718 29015G25KT 3SM -TSRA OVC040CB
     FM262145 01011G20KT P6SM VCSH BKN060
     FM270400 32003KT P6SM SCT070 BKN120=



000
FTUS45 KMSO 260556
TAFMSO
TAF
KMSO 260556Z 2606/2706 30004KT P6SM VCSH SCT060
     FM261600 31005KT P6SM VCSH BKN100=



000
FTUS45 KMSO 260556
TAFBTM
TAF
KBTM 260556Z 2606/2706 00000KT P6SM SKC
     FM261900 33006KT P6SM VCSH BKN080=



000
FTUS45 KMSO 260556
TAFSMN
TAF
KSMN 260556Z 2606/2706 10004KT P6SM SKC
     FM261900 32005KT P6SM VCSH BKN080
      AMD LTD TO CLD VIS AND WIND=



000
FTUS45 KMSO 260556
TAFGPI
TAF
KGPI 260556Z 2606/2706 17011KT P6SM SCT070
     FM261800 16006KT P6SM VCSH BKN070=



000
FTUS45 KMSO 260048 AAA
TAFBTM
TAF AMD
KBTM 260048Z 2601/2624 34008KT P6SM BKN080
     FM260600 26004KT P6SM SCT150=



000
FTUS45 KMSO 251420 AAC
TAFBTM
TAF AMD
KBTM 251420Z 2514/2612 00000KT P6SM VCFG SCT001
     FM251900 31012KT P6SM SKC=



000
FTUS45 KMSO 251401 AAB
TAFBTM
TAF AMD
KBTM 251401Z 2514/2612 00000KT 1SM BR VCFG BKN001
     FM251430 31006KT P6SM FEW030
     FM251900 31012KT P6SM SKC=



000
FTUS45 KMSO 251400 AAB
TAFMSO
TAF AMD
KMSO 251400Z 2514/2612 00000KT 6SM BR VCFG SCT005
      TEMPO 2514/2515 3SM BR BKN005
     FM251900 30010KT P6SM SCT060=



000
FTUS45 KMSO 251300 AAA
TAFMSO
TAF AMD
KMSO 251300Z 2513/2612 00000KT P6SM VCFG SCT005
      TEMPO 2513/2514 P6SM BKN005
     FM251900 30010KT P6SM SCT060=



    US Dept of Commerce
    National Oceanic and Atmospheric Administration
    National Weather Service
    1325 East West Highway
    Silver Spring, MD 20910
    Page Author: NWS Internet Services Team
Disclaimer
Information Quality
Credits
Glossary
Privacy Policy
Freedom of Information Act (FOIA)
About Us
Career Opportunities